Latest Coastal Weather Observations for Gannett Cay

IDQ60701

Issued at 6:42 pm EST Thursday 28 July 2016 (issued every 10 minutes, with the page automatically refreshed every 10 minutes)

About coastal observations | Map of coastal stations | Coastal observations for QLD | Marine services | Other Formats
Station Details ID: 200831 Name: GANNET CAY Lat: -21.98 Lon: 152.47 Height: 2.3 m
Data from the previous 72 hours. | See also: Recent months for locations in Queensland
Date/Time
EST
Temp
°C
Wind Pressure Rain since
9am
mm
Weather Cloud Vis
km
Sea
Height
m
Swell
Dir  Spd
kts
Gust
kts
hPa Trend Height
m
Period
s
Dir
28/06:30pm 20.7 SSE 19 23 1019.7 - - - - - - - - -
28/06:29pm 20.7 SSE 19 20 1019.8 - - - - - - - - -
28/06:00pm 20.6 SSE 20 23 1019.5 - - - - - - - - -
28/05:30pm 20.4 SSE 21 25 1019.2 - - - - - - - - -
28/05:29pm 20.4 SSE 20 - 1019.3 - - - - - - - - -
28/05:00pm 20.5 SSE 20 24 1018.9 - - - - - - - - -
28/04:30pm 20.5 SSE 22 25 1018.7 - - - - - - - - -
28/04:29pm 20.6 SSE 21 - 1018.8 - - - - - - - - -
28/04:00pm 20.7 SSE 22 25 1018.4 - - - - - - - - -
28/03:30pm 20.5 SSE 20 25 1018.5 - - - - - - - - -
28/03:29pm 20.4 SSE 20 - 1018.6 - - - - - - - - -
28/03:00pm 20.2 SSE 21 24 1018.6 - - - - - - - - -
28/02:30pm 20.3 SSE 20 24 1018.8 - - - - - - - - -
28/02:29pm 20.3 SSE 20 - 1018.8 - - - - - - - - -
28/02:00pm 20.3 SSE 20 25 1018.8 - - - - - - - - -
28/01:30pm 20.8 SSE 21 25 1019.0 - - - - - - - - -
28/01:29pm 20.8 SSE 20 - 1019.1 - - - - - - - - -
28/01:00pm 20.6 SSE 21 25 1019.2 - - - - - - - - -
28/12:30pm 20.9 SSE 21 26 1019.5 - - - - - - - - -
28/12:29pm 20.7 SSE 22 - 1019.6 - - - - - - - - -
28/12:00pm 20.7 SSE 22 26 1019.9 - - - - - - - - -
28/11:30am 20.8 SSE 23 27 1020.4 - - - - - - - - -
28/11:29am 20.9 SSE 23 - 1020.4 - - - - - - - - -
28/11:00am 20.7 SSE 23 27 1020.7 - - - - - - - - -
28/10:30am 20.9 SSE 23 27 1020.8 - - - - - - - - -
28/10:29am 20.8 SSE 23 - 1020.9 - - - - - - - - -
28/10:00am 20.9 SSE 23 26 1021.2 - - - - - - - - -
28/09:30am 21.0 SSE 22 27 1021.3 - - - - - - - - -
28/09:29am 21.0 SSE 22 - 1021.4 - - - - - - - - -
28/09:00am 21.1 SSE 23 27 1021.3 - - - - - - - - -
28/08:30am 21.1 SSE 23 26 1021.1 - - - - - - - - -
28/08:29am 21.0 SSE 23 - 1021.2 - - - - - - - - -
28/08:00am 21.1 SSE 23 27 1020.8 - - - - - - - - -
28/07:30am 21.1 SSE 24 27 1020.6 - - - - - - - - -
28/07:29am 21.1 SSE 24 - 1020.7 - - - - - - - - -
28/07:00am 21.0 SSE 25 28 1020.3 - - - - - - - - -
28/06:30am 20.9 SSE 26 30 1019.7 - - - - - - - - -
28/06:29am 20.8 SSE 26 - 1019.8 - - - - - - - - -
28/06:00am 21.0 SSE 27 30 1019.6 - - - - - - - - -
28/05:30am 21.2 SSE 26 31 1019.3 - - - - - - - - -
28/05:29am 21.2 SSE 26 - 1019.4 - - - - - - - - -
28/05:00am 21.1 SSE 26 30 1019.1 - - - - - - - - -
28/04:30am 21.2 S 27 30 1018.6 - - - - - - - - -
28/04:29am 21.2 SSE 27 - 1018.7 - - - - - - - - -
28/04:00am 21.3 SSE 26 31 1018.8 - - - - - - - - -
28/03:30am 21.4 S 24 27 1019.1 - - - - - - - - -
28/03:29am 21.4 S 24 - 1019.2 - - - - - - - - -
28/03:00am 21.6 S 25 29 1019.2 - - - - - - - - -
28/02:30am 21.6 SSE 24 28 1019.0 - - - - - - - - -
28/02:29am 21.7 S 24 - 1019.1 - - - - - - - - -
28/02:00am 22.0 SSE 21 26 1019.1 - - - - - - - - -
28/01:30am 22.1 SSE 21 24 1019.2 - - - - - - - - -
28/01:29am 22.1 S 21 - 1019.3 - - - - - - - - -
28/01:00am 22.2 SSE 18 21 1019.6 - - - - - - - - -
28/12:30am 22.3 SSE 16 18 1019.8 - - - - - - - - -
28/12:29am 22.3 SSE 16 - 1019.9 - - - - - - - - -
28/12:00am 22.3 SSE 15 16 1019.6 - - - - - - - - -
 
Date/Time
EST
Temp
°C
Wind Pressure Rain since
9am
mm
Weather Cloud Vis
km
Sea
Height
m
Swell
Dir  Spd
kts
Gust
kts
hPa Trend Height
m
Period
s
Dir
27/11:30pm 22.2 SSE 15 17 1019.5 - - - - - - - - -
27/11:29pm 22.3 SSE 15 - 1019.6 - - - - - - - - -
27/11:00pm 22.1 SSE 15 17 1019.5 - - - - - - - - -
27/10:30pm 22.0 SSE 14 16 1019.4 - - - - - - - - -
27/10:29pm 22.0 SSE 14 - 1019.5 - - - - - - - - -
27/10:00pm 22.1 SSE 16 18 1019.4 - - - - - - - - -
27/09:30pm 22.1 SSE 15 18 1019.3 - - - - - - - - -
27/09:29pm 22.1 SSE 15 - 1019.4 - - - - - - - - -
27/09:00pm 22.1 SSE 14 17 1019.2 - - - - - - - - -
27/08:30pm 21.9 SSE 13 15 1019.2 - - - - - - - - -
27/08:29pm 22.0 SSE 13 - 1019.3 - - - - - - - - -
27/08:00pm 22.0 SSE 13 15 1018.9 - - - - - - - - -
27/07:30pm 22.0 S 16 18 1018.8 - - - - - - - - -
27/07:29pm 22.1 S 16 - 1018.9 - - - - - - - - -
27/07:00pm 22.1 S 15 17 1018.5 - - - - - - - - -
27/06:30pm 21.8 S 15 19 1018.1 - - - - - - - - -
27/06:29pm 21.9 S 16 - 1018.2 - - - - - - - - -
27/06:00pm 22.0 SSE 17 19 1017.6 - - - - - - - - -
27/05:30pm 21.8 SSE 18 20 1017.2 - - - - - - - - -
27/05:29pm 21.8 SSE 18 - 1017.3 - - - - - - - - -
27/05:00pm 22.2 SSE 16 18 1017.0 - - - - - - - - -
27/04:30pm 22.3 SSE 17 19 1016.6 - - - - - - - - -
27/04:29pm 22.4 SSE 17 - 1016.7 - - - - - - - - -
27/04:00pm 22.3 SSE 17 18 1016.4 - - - - - - - - -
27/03:30pm 22.6 SSE 14 16 1015.9 - - - - - - - - -
27/03:29pm 22.6 SSE 14 - 1016.0 - - - - - - - - -
27/03:00pm 23.0 SSE 13 16 1016.0 - - - - - - - - -
27/02:30pm 22.9 S 15 17 1016.1 - - - - - - - - -
27/02:29pm 22.7 S 15 - 1016.2 - - - - - - - - -
27/02:00pm 22.9 SSE 13 15 1016.3 - - - - - - - - -
27/01:30pm 22.8 SSE 14 15 1016.3 - - - - - - - - -
27/01:29pm 23.0 SSE 14 - 1016.5 - - - - - - - - -
27/01:00pm 22.7 S 15 16 1016.5 - - - - - - - - -
27/12:30pm 23.2 SSE 14 17 1016.7 - - - - - - - - -
27/12:29pm 23.1 SSE 15 - 1016.8 - - - - - - - - -
27/12:00pm 23.3 SSE 13 15 1017.1 - - - - - - - - -
27/11:30am 22.8 S 14 15 1017.2 - - - - - - - - -
27/11:29am 22.9 S 14 - 1017.4 - - - - - - - - -
27/11:00am 23.4 SSE 11 13 1017.7 - - - - - - - - -
27/10:30am 23.4 SSE 10 11 1017.9 - - - - - - - - -
27/10:29am 23.5 SSE 10 - 1018.0 - - - - - - - - -
27/10:00am 23.3 SSE 10 11 1018.1 - - - - - - - - -
27/09:30am 23.3 SSE 10 12 1018.3 - - - - - - - - -
27/09:29am 23.2 SSE 10 - 1018.4 - - - - - - - - -
27/09:00am 23.5 SSE 10 12 1018.5 - - - - - - - - -
27/08:30am 23.2 SSE 11 13 1018.3 - - - - - - - - -
27/08:29am 23.2 SSE 11 - 1018.4 - - - - - - - - -
27/08:00am 23.3 SSE 10 11 1018.0 - - - - - - - - -
27/07:30am 22.9 ESE 10 11 1017.7 - - - - - - - - -
27/07:29am 22.9 ESE 10 - 1017.8 - - - - - - - - -
27/07:00am 22.6 SE 11 13 1017.5 - - - - - - - - -
27/06:30am 22.3 SE 11 12 1017.3 - - - - - - - - -
27/06:29am 22.3 SE 11 - 1017.5 - - - - - - - - -
27/06:00am 22.3 SE 12 13 1017.2 - - - - - - - - -
27/05:30am 22.3 SE 12 14 1017.2 - - - - - - - - -
27/05:29am 22.3 SE 12 - 1017.3 - - - - - - - - -
27/05:00am 22.3 SSE 14 15 1017.0 - - - - - - - - -
27/04:30am 22.3 SSE 13 14 1016.9 - - - - - - - - -
27/04:29am 22.3 SSE 13 - 1017.0 - - - - - - - - -
27/04:00am 22.3 SSE 13 15 1016.7 - - - - - - - - -
27/03:30am 22.3 SSE 12 15 1016.8 - - - - - - - - -
27/03:29am 22.4 SSE 12 - 1016.9 - - - - - - - - -
27/03:00am 22.4 SSE 12 13 1016.9 - - - - - - - - -
27/02:30am 22.4 SSE 12 14 1016.8 - - - - - - - - -
27/02:29am 22.5 SSE 12 - 1017.0 - - - - - - - - -
27/02:00am 22.5 SE 12 14 1016.9 - - - - - - - - -
27/01:30am 22.6 SE 12 13 1017.1 - - - - - - - - -
27/01:29am 22.5 SE 12 - 1017.2 - - - - - - - - -
27/01:00am 22.6 ESE 12 13 1017.1 - - - - - - - - -
27/12:30am 22.6 ESE 11 13 1017.1 - - - - - - - - -
27/12:29am 22.6 ESE 11 - 1017.2 - - - - - - - - -
27/12:00am 22.6 ESE 12 13 1017.2 - - - - - - - - -
 
Date/Time
EST
Temp
°C
Wind Pressure Rain since
9am
mm
Weather Cloud Vis
km
Sea
Height
m
Swell
Dir  Spd
kts
Gust
kts
hPa Trend Height
m
Period
s
Dir
26/11:30pm 22.5 ESE 13 14 1017.2 - - - - - - - - -
26/11:29pm 22.5 ESE 13 - 1017.3 - - - - - - - - -
26/11:00pm 22.5 ESE 13 15 1017.2 - - - - - - - - -
26/10:30pm 22.5 ESE 14 16 1017.3 - - - - - - - - -
26/10:29pm 22.5 ESE 14 - 1017.4 - - - - - - - - -
26/10:00pm 22.5 ESE 16 18 1017.4 - - - - - - - - -
26/09:30pm 22.6 ESE 16 18 1017.3 - - - - - - - - -
26/09:29pm 22.6 ESE 16 - 1017.4 - - - - - - - - -
26/09:00pm 22.6 SE 16 18 1017.2 - - - - - - - - -
26/08:30pm 22.6 SE 16 18 1017.1 - - - - - - - - -
26/08:29pm 22.6 SE 16 - 1017.2 - - - - - - - - -
26/08:00pm 22.6 SE 17 19 1016.9 - - - - - - - - -
26/07:30pm 22.6 SE 16 18 1016.8 - - - - - - - - -
26/07:29pm 22.6 SE 16 - 1016.9 - - - - - - - - -
26/07:00pm 22.6 SE 15 17 1016.4 - - - - - - - - -
26/06:30pm 22.5 SE 16 17 1016.0 - - - - - - - - -
26/06:29pm 22.6 SE 16 - 1016.1 - - - - - - - - -
26/06:00pm 22.5 SE 15 17 1015.8 - - - - - - - - -
26/05:30pm 22.6 ESE 15 17 1015.6 - - - - - - - - -
26/05:29pm 22.6 ESE 15 - 1015.7 - - - - - - - - -
26/05:00pm 22.9 ESE 14 16 1015.3 - - - - - - - - -
26/04:30pm 23.3 ESE 13 15 1015.1 - - - - - - - - -
26/04:29pm 23.2 ESE 13 - 1015.2 - - - - - - - - -
26/04:00pm 23.6 SE 12 13 1015.0 - - - - - - - - -
26/03:30pm 23.7 SE 11 13 1014.9 - - - - - - - - -
26/03:29pm 23.7 SE 11 - 1015.0 - - - - - - - - -
26/03:00pm 23.5 ESE 11 12 1014.9 - - - - - - - - -
26/02:30pm 23.6 SE 11 12 1015.1 - - - - - - - - -
26/02:29pm 23.6 SE 10 - 1015.2 - - - - - - - - -
26/02:00pm 23.5 ESE 10 11 1015.3 - - - - - - - - -
26/01:30pm 23.6 SE 9 11 1015.4 - - - - - - - - -
26/01:29pm 23.5 SE 9 - 1015.5 - - - - - - - - -
26/01:00pm 23.6 SE 9 10 1015.7 - - - - - - - - -
26/12:30pm 23.3 ESE 9 10 1016.0 - - - - - - - - -
26/12:29pm 23.3 SE 9 - 1016.1 - - - - - - - - -
26/12:00pm 23.7 ESE 9 10 1016.4 - - - - - - - - -
26/11:30am 23.5 SE 9 10 1016.8 - - - - - - - - -
26/11:29am 23.6 SE 9 - 1016.9 - - - - - - - - -
26/11:00am 23.5 SE 7 9 1017.0 - - - - - - - - -
26/10:30am 23.8 SE 9 11 1017.3 - - - - - - - - -
26/10:29am 23.7 SSE 9 - 1017.4 - - - - - - - - -
26/10:00am 23.6 SSE 9 10 1017.5 - - - - - - - - -
26/09:30am 23.6 SE 8 9 1017.8 - - - - - - - - -
26/09:29am 23.5 SE 8 - 1017.9 - - - - - - - - -
26/09:00am 23.5 SE 8 10 1017.9 - - - - - - - - -
26/08:30am 23.3 SSE 8 10 1017.7 - - - - - - - - -
26/08:29am 23.3 SSE 8 - 1017.8 - - - - - - - - -
26/08:00am 23.4 SSE 8 9 1017.6 - - - - - - - - -
26/07:30am 23.0 ESE 7 8 1017.5 - - - - - - - - -
26/07:29am 23.0 ESE 7 - 1017.6 - - - - - - - - -
26/07:00am 22.7 ESE 6 7 1017.2 - - - - - - - - -
26/06:30am 22.3 SE 8 9 1016.8 - - - - - - - - -
26/06:29am 22.2 SE 7 - 1016.9 - - - - - - - - -
26/06:00am 22.2 ESE 8 9 1016.6 - - - - - - - - -
26/05:30am 22.2 ESE 9 10 1016.5 - - - - - - - - -
26/05:29am 22.3 ESE 9 - 1016.6 - - - - - - - - -
26/05:00am 22.2 ESE 9 11 1016.2 - - - - - - - - -
26/04:30am 22.2 ESE 8 9 1016.2 - - - - - - - - -
26/04:29am 22.2 ESE 8 - 1016.3 - - - - - - - - -
26/04:00am 22.2 ESE 8 10 1016.2 - - - - - - - - -
26/03:30am 22.2 SE 9 11 1016.0 - - - - - - - - -
26/03:29am 22.2 SE 9 - 1016.1 - - - - - - - - -
26/03:00am 22.2 SE 8 10 1016.2 - - - - - - - - -
26/02:30am 22.2 SE 8 9 1016.3 - - - - - - - - -
26/02:29am 22.1 SE 8 - 1016.4 - - - - - - - - -
26/02:00am 22.1 SE 8 10 1016.5 - - - - - - - - -
26/01:30am 22.1 SE 8 9 1016.7 - - - - - - - - -
26/01:29am 22.1 SE 8 - 1016.8 - - - - - - - - -
26/01:00am 22.2 ESE 8 9 1016.9 - - - - - - - - -
26/12:30am 22.2 SE 8 9 1017.1 - - - - - - - - -
26/12:29am 22.2 ESE 8 - 1017.3 - - - - - - - - -
26/12:00am 22.2 ESE 9 10 1017.3 - - - - - - - - -
 
Date/Time
EST
Temp
°C
Wind Pressure Rain since
9am
mm
Weather Cloud Vis
km
Sea
Height
m
Swell
Dir  Spd
kts
Gust
kts
hPa Trend Height
m
Period
s
Dir
25/11:30pm 22.1 ESE 9 11 1017.2 - - - - - - - - -
25/11:29pm 22.1 ESE 9 - 1017.4 - - - - - - - - -
25/11:00pm 22.1 SE 10 11 1017.2 - - - - - - - - -
25/10:30pm 22.0 SE 10 12 1017.2 - - - - - - - - -
25/10:29pm 22.0 SE 10 - 1017.3 - - - - - - - - -
25/10:00pm 22.0 SSE 11 13 1017.0 - - - - - - - - -
25/09:30pm 22.1 SSE 11 12 1017.0 - - - - - - - - -
25/09:29pm 22.0 SSE 11 - 1017.1 - - - - - - - - -
25/09:00pm 22.1 SSE 11 13 1016.9 - - - - - - - - -
25/08:30pm 22.0 SSE 11 12 1016.9 - - - - - - - - -
25/08:29pm 22.0 SSE 11 - 1017.0 - - - - - - - - -
25/08:00pm 22.1 SE 11 13 1016.8 - - - - - - - - -
25/07:30pm 22.1 SE 11 12 1016.6 - - - - - - - - -
25/07:29pm 22.0 SE 11 - 1016.7 - - - - - - - - -
25/07:00pm 22.0 SSE 12 14 1016.2 - - - - - - - - -

Other Formats:

Comma delimited format used in spreadsheet applications
http://www.bom.gov.au/fwo/IDQ60701/IDQ60701.94379.axf

JavaScript Object Notation format (JSON) in row-major order
http://www.bom.gov.au/fwo/IDQ60701/IDQ60701.94379.json